createdAt,value
2024-01-04T00:02:09.379Z,99112.78
2024-01-04T00:04:45.895Z,99109.22
2024-01-04T00:07:24.329Z,99118.19
2024-01-04T00:09:59.152Z,99117.34
2024-01-04T00:12:37.671Z,99118.19
2024-01-04T00:15:31.272Z,99119.34
2024-01-04T00:18:01.336Z,99127.91
2024-01-04T00:20:34.189Z,99132.63
2024-01-04T00:23:04.432Z,99130.38
2024-01-04T00:25:34.622Z,99136.91
2024-01-04T00:28:05.252Z,99138.06
2024-01-04T00:30:33.564Z,99138.91
2024-01-04T00:33:04.134Z,99150.53
2024-01-04T00:35:36.843Z,99150.22
2024-01-04T00:38:06.908Z,99148.72
2024-01-04T00:40:40.978Z,99155.63
2024-01-04T00:43:13.813Z,99163.75
2024-01-04T00:45:46.976Z,99165.75
2024-01-04T00:48:17.120Z,99165.31
2024-01-04T00:50:57.794Z,99173.44
2024-01-04T00:53:28.734Z,99176.75
2024-01-04T00:56:06.457Z,99184.94
2024-01-04T00:58:42.350Z,99189.22
2024-01-04T01:01:12.697Z,99190.13
2024-01-04T01:03:42.571Z,99189.34
2024-01-04T01:06:16.506Z,99208.53
2024-01-04T01:08:46.517Z,99201.66
2024-01-04T01:11:16.449Z,99217.09
2024-01-04T01:13:46.515Z,99214.38
2024-01-04T01:16:16.419Z,99215.88
2024-01-04T01:18:46.453Z,99222.50
2024-01-04T01:21:19.003Z,99225.56
2024-01-04T01:23:48.962Z,99229.78
2024-01-04T01:26:18.824Z,99246.34
2024-01-04T01:28:48.728Z,99243.44
2024-01-04T01:31:21.565Z,99247.28
2024-01-04T01:33:52.100Z,99261.81
2024-01-04T01:36:25.337Z,99267.31
2024-01-04T01:38:55.225Z,99274.22
2024-01-04T01:41:25.084Z,99289.75
2024-01-04T01:43:54.985Z,99295.31
2024-01-04T01:46:24.930Z,99298.44
2024-01-04T01:48:55.375Z,99305.00
2024-01-04T01:51:27.944Z,99312.69
2024-01-04T01:53:58.385Z,99318.31
2024-01-04T01:56:28.278Z,99327.59
2024-01-04T01:58:58.173Z,99332.88
2024-01-04T02:01:28.177Z,99331.22
2024-01-04T02:03:58.371Z,99354.53
2024-01-04T02:06:31.039Z,99355.78
2024-01-04T02:09:01.034Z,99355.53
2024-01-04T02:11:31.196Z,99359.38
2024-01-04T02:14:01.255Z,99370.66
2024-01-04T02:16:34.819Z,99372.91
2024-01-04T02:19:05.184Z,99381.03
2024-01-04T02:21:39.880Z,99384.53
2024-01-04T02:24:12.466Z,99395.03
2024-01-04T02:26:42.487Z,99402.38
2024-01-04T02:29:12.381Z,99399.00
2024-01-04T02:31:45.144Z,99409.69
2024-01-04T02:34:15.449Z,99402.47
2024-01-04T02:36:48.581Z,99425.94
2024-01-04T02:39:28.834Z,99421.31
2024-01-04T02:42:02.157Z,99429.78
2024-01-04T02:44:35.227Z,99437.47
2024-01-04T02:47:05.658Z,99440.19
2024-01-04T02:49:35.704Z,99439.06
2024-01-04T02:52:05.656Z,99451.47
2024-01-04T02:54:38.168Z,99446.38
2024-01-04T02:57:08.560Z,99451.25
2024-01-04T02:59:38.441Z,99458.22
2024-01-04T03:02:08.309Z,99455.63
2024-01-04T03:04:42.064Z,99455.75
2024-01-04T03:07:12.408Z,99458.78
2024-01-04T03:09:44.846Z,99463.53
2024-01-04T03:12:14.904Z,99468.28
2024-01-04T03:14:44.794Z,99462.75
2024-01-04T03:17:14.787Z,99472.34
2024-01-04T03:19:44.965Z,99479.34
2024-01-04T03:22:14.867Z,99500.66
2024-01-04T03:24:47.373Z,99496.59
2024-01-04T03:27:17.276Z,99512.03
2024-01-04T03:29:47.663Z,99499.06
2024-01-04T03:32:17.513Z,99493.19
2024-01-04T03:34:47.447Z,99514.06
2024-01-04T03:37:17.266Z,99512.38
2024-01-04T03:39:51.070Z,99522.31
2024-01-04T03:42:21.252Z,99519.25
2024-01-04T03:44:51.184Z,99535.38
2024-01-04T03:47:21.376Z,99540.78
2024-01-04T03:49:51.292Z,99531.88
2024-01-04T03:52:21.158Z,99533.13
2024-01-04T03:54:53.640Z,99532.22
2024-01-04T03:57:41.584Z,99544.50
2024-01-04T04:00:14.166Z,99550.03
2024-01-04T04:02:44.365Z,99541.47
2024-01-04T04:05:14.496Z,99557.03
2024-01-04T04:07:45.316Z,99549.25
2024-01-04T04:10:17.971Z,99549.78
2024-01-04T04:12:47.815Z,99559.03
2024-01-04T04:15:18.266Z,99556.78
2024-01-04T04:17:48.310Z,99565.38
2024-01-04T04:20:18.452Z,99562.19
2024-01-04T04:22:48.321Z,99564.59
2024-01-04T04:25:20.824Z,99569.53
2024-01-04T04:27:50.769Z,99569.22
2024-01-04T04:30:22.276Z,99583.06
2024-01-04T04:32:52.367Z,99587.69
2024-01-04T04:35:22.413Z,99583.84
2024-01-04T04:37:52.353Z,99596.16
2024-01-04T04:40:24.784Z,99587.69
2024-01-04T04:42:54.620Z,99593.88
2024-01-04T04:45:24.555Z,99612.19
2024-01-04T04:47:54.580Z,99602.59
2024-01-04T04:50:24.500Z,99597.88
2024-01-04T04:52:54.386Z,99597.88
2024-01-04T04:55:26.793Z,99600.22
2024-01-04T04:57:57.372Z,99604.19
2024-01-04T05:00:27.186Z,99607.38
2024-01-04T05:02:57.292Z,99618.31
2024-01-04T05:05:27.222Z,99623.03
2024-01-04T05:07:57.161Z,99623.19
2024-01-04T05:10:29.823Z,99622.06
2024-01-04T05:13:00.347Z,99645.97
2024-01-04T05:15:30.335Z,99646.16
2024-01-04T05:18:00.341Z,99649.56
2024-01-04T05:20:30.359Z,99656.75
2024-01-04T05:23:01.369Z,99655.16
2024-01-04T05:25:33.926Z,99653.44
2024-01-04T05:28:03.924Z,99653.44
2024-01-04T05:30:33.862Z,99666.69
2024-01-04T05:33:04.988Z,99654.72
2024-01-04T05:35:34.949Z,99647.50
2024-01-04T05:38:04.871Z,99654.63
2024-01-04T05:40:37.348Z,99664.00
2024-01-04T05:43:07.658Z,99675.63
2024-01-04T05:45:37.744Z,99672.13
2024-01-04T05:48:08.137Z,99686.34
2024-01-04T05:50:38.318Z,99683.81
2024-01-04T05:53:08.383Z,99693.06
2024-01-04T05:55:40.854Z,99690.22
2024-01-04T05:58:10.721Z,99689.44
2024-01-04T06:00:40.650Z,99699.81
2024-01-04T06:03:10.733Z,99696.66
2024-01-04T06:05:40.778Z,99706.53
2024-01-04T06:08:10.857Z,99705.63
2024-01-04T06:10:43.426Z,99711.03
2024-01-04T06:13:13.345Z,99721.19
2024-01-04T06:15:43.498Z,99720.56
2024-01-04T06:18:13.494Z,99725.28
2024-01-04T06:20:44.611Z,99729.25
2024-01-04T06:23:14.558Z,99734.81
2024-01-04T06:25:47.030Z,99736.38
2024-01-04T06:28:17.035Z,99733.00
2024-01-04T06:30:47.253Z,99742.06
2024-01-04T06:33:17.343Z,99749.84
2024-01-04T06:35:47.857Z,99756.06
2024-01-04T06:38:17.697Z,99757.63
2024-01-04T06:40:51.704Z,99754.63
2024-01-04T06:43:21.547Z,99753.03
2024-01-04T06:45:51.378Z,99758.75
2024-01-04T06:48:21.315Z,99762.25
2024-01-04T06:50:51.312Z,99759.44
2024-01-04T06:53:21.491Z,99763.72
2024-01-04T06:55:54.069Z,99766.63
2024-01-04T06:58:24.193Z,99775.22
2024-01-04T07:00:54.134Z,99771.41
2024-01-04T07:03:24.057Z,99777.72
2024-01-04T07:05:54.156Z,99781.56
2024-01-04T07:08:24.666Z,99781.72
2024-01-04T07:10:57.441Z,99784.41
2024-01-04T07:13:27.482Z,99793.97
2024-01-04T07:15:57.338Z,99793.19
2024-01-04T07:18:27.619Z,99793.97
2024-01-04T07:21:06.145Z,99794.63
2024-01-04T07:23:38.825Z,99801.50
2024-01-04T07:26:11.606Z,99803.41
2024-01-04T07:28:41.797Z,99805.00
2024-01-04T07:31:13.125Z,99811.06
2024-01-04T07:33:52.057Z,99813.78
2024-01-04T07:36:29.248Z,99813.66
2024-01-04T07:39:00.207Z,99816.38
2024-01-04T07:41:51.775Z,99818.91
2024-01-04T07:44:21.901Z,99823.22
2024-01-04T07:46:52.326Z,99831.34
2024-01-04T07:49:22.663Z,99833.41
2024-01-04T07:51:53.066Z,99834.53
2024-01-04T07:54:24.491Z,99841.19
2024-01-04T07:56:59.047Z,99842.44
2024-01-04T07:59:29.073Z,99851.50
2024-01-04T08:01:59.003Z,99848.47
2024-01-04T08:04:28.932Z,99859.28
2024-01-04T08:06:58.972Z,99858.16
2024-01-04T08:09:28.832Z,99866.63
2024-01-04T08:12:01.489Z,99868.22
2024-01-04T08:14:34.827Z,99871.38
2024-01-04T08:17:04.728Z,99868.88
2024-01-04T08:19:35.044Z,99877.91
2024-01-04T08:22:07.817Z,99883.34
2024-01-04T08:24:40.805Z,99882.09
2024-01-04T08:27:13.350Z,99891.44
2024-01-04T08:29:43.756Z,99890.66
2024-01-04T08:32:13.779Z,99895.28
2024-01-04T08:34:44.071Z,99898.31
2024-01-04T08:37:22.643Z,99901.16
2024-01-04T08:39:53.837Z,99904.81
2024-01-04T08:42:26.803Z,99909.56
2024-01-04T08:44:57.561Z,99914.97
2024-01-04T08:47:27.566Z,99911.81
2024-01-04T08:50:01.865Z,99915.66
2024-01-04T08:52:32.333Z,99918.19
2024-01-04T08:55:05.872Z,99918.53
2024-01-04T08:57:38.617Z,99911.53
2024-01-04T09:00:12.871Z,99916.03
2024-01-04T09:02:42.995Z,99916.94
2024-01-04T09:05:13.461Z,99923.94
2024-01-04T09:07:46.201Z,99928.44
2024-01-04T09:10:18.519Z,99934.78
2024-01-04T09:12:52.450Z,99924.44
2024-01-04T09:15:32.100Z,99938.56
2024-01-04T09:18:07.849Z,99935.41
2024-01-04T09:20:37.931Z,99937.94
2024-01-04T09:23:08.544Z,99943.00
2024-01-04T09:25:38.771Z,99957.50
2024-01-04T09:28:11.817Z,99961.78
2024-01-04T09:31:00.055Z,99961.78
2024-01-04T09:33:33.810Z,99959.88
2024-01-04T09:36:04.824Z,99970.38
2024-01-04T09:38:37.136Z,99975.00
2024-01-04T09:41:28.390Z,99974.22
2024-01-04T09:44:02.813Z,99977.38
2024-01-04T09:46:38.143Z,99985.06
2024-01-04T09:49:09.431Z,99984.88
2024-01-04T09:51:41.087Z,99990.59
2024-01-04T09:54:17.736Z,99991.38
2024-01-04T09:56:54.859Z,100002.22
2024-01-04T09:59:49.943Z,100006.25
2024-01-04T10:02:26.925Z,100013.25
2024-01-04T10:05:08.561Z,100013.56
2024-01-04T10:07:48.587Z,100027.09
2024-01-04T10:10:23.442Z,100020.09
2024-01-04T10:13:08.734Z,100020.88
2024-01-04T10:15:52.301Z,100027.72
2024-01-04T10:18:31.646Z,100029.66
2024-01-04T10:21:25.783Z,100030.94
2024-01-04T10:24:20.581Z,100031.84
2024-01-04T10:26:58.393Z,100029.59
2024-01-04T10:29:32.218Z,100028.31
2024-01-04T10:32:18.737Z,100020.00
2024-01-04T10:34:51.123Z,100031.78
2024-01-04T10:37:27.438Z,100030.47
2024-01-04T10:40:06.974Z,100036.38
2024-01-04T10:42:42.218Z,100030.75
2024-01-04T10:45:21.065Z,100030.91
2024-01-04T10:47:59.909Z,100034.84
2024-01-04T10:50:34.822Z,100031.16
2024-01-04T10:53:12.050Z,100033.53
2024-01-04T10:55:43.100Z,100031.00
2024-01-04T10:58:13.781Z,100027.63
2024-01-04T11:00:45.388Z,100027.78
2024-01-04T11:03:21.240Z,100034.00
2024-01-04T11:05:57.311Z,100034.78
2024-01-04T11:08:31.093Z,100036.38
2024-01-04T11:11:03.399Z,100040.69
2024-01-04T11:13:43.058Z,100040.22
2024-01-04T11:16:22.520Z,100040.22
2024-01-04T11:19:09.276Z,100042.00
2024-01-04T11:22:03.495Z,100042.31
2024-01-04T11:24:44.473Z,100038.63
2024-01-04T11:27:18.618Z,100038.75
2024-01-04T11:29:50.817Z,100035.72
2024-01-04T11:32:21.472Z,100036.84
2024-01-04T11:34:54.219Z,100040.34
2024-01-04T11:37:25.473Z,100030.16
2024-01-04T11:40:05.359Z,100041.81
2024-01-04T11:42:39.357Z,100043.84
2024-01-04T11:45:17.963Z,100039.09
2024-01-04T11:47:53.529Z,100037.97
2024-01-04T11:50:30.795Z,100046.31
2024-01-04T11:53:07.886Z,100046.16
2024-01-04T11:55:39.324Z,100037.03
2024-01-04T11:58:13.357Z,100045.66
2024-01-04T12:00:53.074Z,100035.59
2024-01-04T12:03:26.026Z,100038.09
2024-01-04T12:06:02.141Z,100040.94
2024-01-04T12:08:47.308Z,100042.53
2024-01-04T12:11:24.100Z,100037.28
2024-01-04T12:13:58.051Z,100038.25
2024-01-04T12:16:28.651Z,100035.97
2024-01-04T12:18:58.919Z,100042.19
2024-01-04T12:21:31.855Z,100039.47
2024-01-04T12:24:04.464Z,100044.28
2024-01-04T12:26:39.176Z,100040.09
2024-01-04T12:29:15.164Z,100046.31
2024-01-04T12:31:46.883Z,100053.19
2024-01-04T12:34:17.019Z,100067.09
2024-01-04T12:36:49.786Z,100059.25
2024-01-04T12:39:19.945Z,100065.47
2024-01-04T12:41:50.067Z,100060.88
2024-01-04T12:44:20.860Z,100059.25
2024-01-04T12:46:50.738Z,100063.09
2024-01-04T12:49:24.012Z,100055.19
2024-01-04T12:51:57.982Z,100061.69
2024-01-04T12:54:27.980Z,100057.41
2024-01-04T12:56:59.556Z,100071.13
2024-01-04T12:59:32.772Z,100060.59
2024-01-04T13:02:02.685Z,100067.72
2024-01-04T13:04:32.954Z,100067.88
2024-01-04T13:07:05.805Z,100061.50
2024-01-04T13:09:36.356Z,100061.97
2024-01-04T13:12:06.909Z,100072.53
2024-01-04T13:14:37.007Z,100074.91
2024-01-04T13:17:07.912Z,100073.16
2024-01-04T13:19:37.922Z,100069.19
2024-01-04T13:22:11.954Z,100080.84
2024-01-04T13:24:44.558Z,100068.25
2024-01-04T13:27:15.658Z,100075.25
2024-01-04T13:29:45.737Z,100068.91
2024-01-04T13:32:16.643Z,100070.03
2024-01-04T13:34:46.659Z,100068.91
2024-01-04T13:37:19.514Z,100072.28
2024-01-04T13:39:49.929Z,100070.34
2024-01-04T13:42:19.765Z,100068.91
2024-01-04T13:44:49.657Z,100074.34
2024-01-04T13:47:19.637Z,100080.03
2024-01-04T13:49:49.844Z,100077.78
2024-01-04T13:52:27.882Z,100075.88
2024-01-04T13:54:58.373Z,100074.63
2024-01-04T13:57:28.351Z,100087.72
2024-01-04T13:59:59.560Z,100090.75
2024-01-04T14:02:29.650Z,100094.44
2024-01-04T14:04:59.555Z,100092.03
2024-01-04T14:07:32.192Z,100105.94
2024-01-04T14:10:02.352Z,100098.47
2024-01-04T14:12:32.219Z,100106.09
2024-01-04T14:15:02.555Z,100111.53
2024-01-04T14:17:32.477Z,100108.19
2024-01-04T14:20:02.712Z,100109.78
2024-01-04T14:22:35.277Z,100106.59
2024-01-04T14:25:05.121Z,100120.16
2024-01-04T14:27:35.036Z,100117.25
2024-01-04T14:30:06.808Z,100120.75
2024-01-04T14:32:36.904Z,100124.25
2024-01-04T14:35:08.124Z,100120.63
2024-01-04T14:37:42.992Z,100123.78
2024-01-04T14:40:18.370Z,100127.78
2024-01-04T14:42:49.152Z,100122.47
2024-01-04T14:45:19.584Z,100115.47
2024-01-04T14:47:50.725Z,100127.91
2024-01-04T14:50:21.615Z,100129.03
2024-01-04T14:52:54.100Z,100126.31
2024-01-04T14:55:27.585Z,100131.75
2024-01-04T14:57:58.113Z,100134.00
2024-01-04T15:00:28.240Z,100138.63
2024-01-04T15:02:58.290Z,100139.41
2024-01-04T15:05:28.375Z,100141.00
2024-01-04T15:08:01.139Z,100143.38
2024-01-04T15:10:31.059Z,100144.97
2024-01-04T15:13:01.827Z,100144.97
2024-01-04T15:15:37.615Z,100146.56
2024-01-04T15:18:08.867Z,100158.34
2024-01-04T15:20:39.162Z,100154.53
2024-01-04T15:23:11.827Z,100153.41
2024-01-04T15:25:44.997Z,100160.75
2024-01-04T15:28:15.182Z,100168.41
2024-01-04T15:30:45.107Z,100161.41
2024-01-04T15:33:15.267Z,100150.72
2024-01-04T15:35:45.308Z,100168.13
2024-01-04T15:38:20.859Z,100168.28
2024-01-04T15:40:50.745Z,100170.56
2024-01-04T15:43:21.304Z,100172.28
2024-01-04T15:45:51.202Z,100164.47
2024-01-04T15:48:23.654Z,100172.94
2024-01-04T15:50:53.888Z,100168.19
2024-01-04T15:53:26.509Z,100177.41
2024-01-04T15:55:58.409Z,100181.25
2024-01-04T15:58:28.514Z,100169.47
2024-01-04T16:00:59.000Z,100181.91
2024-01-04T16:03:29.077Z,100170.09
2024-01-04T16:05:59.348Z,100183.66
2024-01-04T16:08:35.062Z,100183.31
2024-01-04T16:11:05.327Z,100187.31
2024-01-04T16:13:35.604Z,100177.41
2024-01-04T16:16:05.483Z,100180.44
2024-01-04T16:18:36.130Z,100183.16
2024-01-04T16:21:11.186Z,100188.91
2024-01-04T16:23:43.847Z,100178.84
2024-01-04T16:26:17.682Z,100187.94
2024-01-04T16:28:47.772Z,100183.97
2024-01-04T16:31:17.834Z,100179.22
2024-01-04T16:33:48.852Z,100183.69
2024-01-04T16:36:19.906Z,100178.13
2024-01-04T16:38:52.362Z,100176.06
2024-01-04T16:41:22.297Z,100172.41
2024-01-04T16:43:53.002Z,100176.88
2024-01-04T16:46:24.306Z,100179.13
2024-01-04T16:49:07.024Z,100174.97
2024-01-04T16:51:49.256Z,100181.03
2024-01-04T16:54:26.753Z,100177.84
2024-01-04T16:57:05.706Z,100170.03
2024-01-04T16:59:35.708Z,100167.66
2024-01-04T17:02:13.118Z,100166.88
2024-01-04T17:04:52.502Z,100178.00
2024-01-04T17:07:23.835Z,100174.38
2024-01-04T17:09:56.553Z,100176.09
2024-01-04T17:12:29.201Z,100179.47
2024-01-04T17:15:02.118Z,100171.50
2024-01-04T17:17:34.584Z,100179.16
2024-01-04T17:20:04.638Z,100179.16
2024-01-04T17:22:34.501Z,100173.44
2024-01-04T17:25:08.015Z,100176.75
2024-01-04T17:27:37.913Z,100188.69
2024-01-04T17:30:10.095Z,100177.88
2024-01-04T17:32:40.326Z,100177.56
2024-01-04T17:35:17.254Z,100178.22
2024-01-04T17:37:50.833Z,100177.56
2024-01-04T17:40:23.701Z,100170.38
2024-01-04T17:42:53.573Z,100169.91
2024-01-04T17:45:23.870Z,100165.94
2024-01-04T17:47:54.632Z,100165.16
2024-01-04T17:50:24.602Z,100161.31
2024-01-04T17:52:54.426Z,100168.31
2024-01-04T17:55:27.007Z,100173.75
2024-01-04T17:57:56.895Z,100166.75
2024-01-04T18:00:26.816Z,100174.38
2024-01-04T18:02:57.419Z,100173.88
2024-01-04T18:05:28.629Z,100173.41
2024-01-04T18:08:01.952Z,100177.25
2024-01-04T18:10:34.897Z,100184.88
2024-01-04T18:13:07.449Z,100193.28
2024-01-04T18:15:43.099Z,100178.03
2024-01-04T18:18:13.243Z,100175.94
2024-01-04T18:20:43.207Z,100172.75
2024-01-04T18:23:14.312Z,100175.47
2024-01-04T18:25:47.334Z,100161.94
2024-01-04T18:28:25.642Z,100176.59
2024-01-04T18:30:55.656Z,100169.59
2024-01-04T18:33:30.622Z,100168.59
2024-01-04T18:36:04.036Z,100170.84
2024-01-04T18:38:33.925Z,100167.03
2024-01-04T18:41:06.588Z,100154.75
2024-01-04T18:43:41.792Z,100150.00
2024-01-04T18:46:13.886Z,100149.19
2024-01-04T18:48:44.136Z,100149.03
2024-01-04T18:51:24.741Z,100151.56
2024-01-04T18:53:55.653Z,100138.38
2024-01-04T18:56:28.983Z,100141.06
2024-01-04T18:58:58.866Z,100128.50
2024-01-04T19:01:28.904Z,100137.72
2024-01-04T19:03:58.990Z,100135.34
2024-01-04T19:06:29.038Z,100141.03
2024-01-04T19:09:00.851Z,100138.66
2024-01-04T19:11:33.917Z,100141.22
2024-01-04T19:14:06.524Z,100141.81
2024-01-04T19:16:36.621Z,100131.97
2024-01-04T19:19:06.722Z,100124.47
2024-01-04T19:21:36.830Z,100131.31
2024-01-04T19:24:07.431Z,100134.63
2024-01-04T19:26:50.391Z,100126.69
2024-01-04T19:29:20.261Z,100132.66
2024-01-04T19:31:52.249Z,100130.75
2024-01-04T19:34:31.808Z,100136.16
2024-01-04T19:37:01.881Z,100143.19
2024-01-04T19:39:31.878Z,100142.41
2024-01-04T19:42:04.494Z,100143.78
2024-01-04T19:44:35.727Z,100153.81
2024-01-04T19:47:07.314Z,100149.53
2024-01-04T19:49:37.245Z,100145.22
2024-01-04T19:52:07.763Z,100142.03
2024-01-04T19:54:38.240Z,100133.44
2024-01-04T19:57:10.942Z,100135.66
2024-01-04T19:59:40.902Z,100140.28
2024-01-04T20:02:10.807Z,100136.28
2024-01-04T20:04:40.757Z,100138.50
2024-01-04T20:07:13.125Z,100136.91
2024-01-04T20:09:45.914Z,100128.31
2024-01-04T20:12:20.386Z,100123.53
2024-01-04T20:14:50.655Z,100127.81
2024-01-04T20:17:21.063Z,100131.16
2024-01-04T20:19:51.599Z,100118.28
2024-01-04T20:22:22.073Z,100117.97
2024-01-04T20:24:52.011Z,100117.78
2024-01-04T20:27:24.641Z,100120.47
2024-01-04T20:29:54.527Z,100119.09
2024-01-04T20:32:24.406Z,100116.06
2024-01-04T20:34:54.752Z,100116.06
2024-01-04T20:37:24.718Z,100116.53
2024-01-04T20:39:54.681Z,100110.03
2024-01-04T20:42:27.386Z,100105.13
2024-01-04T20:44:57.669Z,100104.28
2024-01-04T20:47:27.767Z,100096.69
2024-01-04T20:49:58.533Z,100092.56
2024-01-04T20:52:28.787Z,100087.94
2024-01-04T20:55:01.339Z,100087.63
2024-01-04T20:57:36.201Z,100080.03
2024-01-04T21:00:09.975Z,100078.44
2024-01-04T21:02:39.864Z,100085.25
2024-01-04T21:05:13.793Z,100076.22
2024-01-04T21:07:44.365Z,100067.63
2024-01-04T21:10:14.665Z,100070.81
2024-01-04T21:12:48.060Z,100067.78
2024-01-04T21:15:19.767Z,100069.03
2024-01-04T21:17:50.198Z,100053.94
2024-01-04T21:20:22.909Z,100054.44
2024-01-04T21:23:02.365Z,100053.63
2024-01-04T21:25:42.542Z,100041.88
2024-01-04T21:28:23.507Z,100039.06
2024-01-04T21:31:00.253Z,100042.22
2024-01-04T21:33:34.804Z,100044.78
2024-01-04T21:36:10.066Z,100031.28
2024-01-04T21:38:42.216Z,100031.75
2024-01-04T21:41:12.055Z,100025.53
2024-01-04T21:43:47.697Z,100020.13
2024-01-04T21:46:25.388Z,100008.06
2024-01-04T21:48:56.882Z,100008.06
2024-01-04T21:51:29.984Z,100002.94
2024-01-04T21:54:03.049Z,100001.06
2024-01-04T21:56:38.487Z,99996.75
2024-01-04T21:59:13.851Z,99988.16
2024-01-04T22:01:44.177Z,99980.06
2024-01-04T22:04:14.436Z,99985.16
2024-01-04T22:06:58.139Z,99978.31
2024-01-04T22:09:28.569Z,99972.91
2024-01-04T22:12:01.826Z,99961.78
2024-01-04T22:14:35.505Z,99957.63
2024-01-04T22:17:10.223Z,99960.84
2024-01-04T22:19:43.986Z,99961.78
2024-01-04T22:22:15.842Z,99954.13
2024-01-04T22:24:54.389Z,99948.72
2024-01-04T22:27:25.914Z,99949.22
2024-01-04T22:29:58.941Z,99942.69
2024-01-04T22:32:32.287Z,99936.94
2024-01-04T22:35:02.421Z,99939.66
2024-01-04T22:37:32.346Z,99939.66
2024-01-04T22:40:02.730Z,99935.03
2024-01-04T22:42:38.028Z,99925.81
2024-01-04T22:45:11.807Z,99922.31
2024-01-04T22:47:42.266Z,99904.19
2024-01-04T22:50:13.004Z,99906.41
2024-01-04T22:52:43.021Z,99897.19
2024-01-04T22:55:28.367Z,99888.59
2024-01-04T22:57:59.024Z,99892.91
2024-01-04T23:00:35.210Z,99887.94
2024-01-04T23:03:09.058Z,99889.25
2024-01-04T23:05:39.284Z,99888.25
2024-01-04T23:08:20.801Z,99876.00
2024-01-04T23:10:50.767Z,99872.97
2024-01-04T23:13:22.669Z,99866.13
2024-01-04T23:15:55.307Z,99866.91
2024-01-04T23:18:33.250Z,99864.69
2024-01-04T23:21:12.670Z,99866.28
2024-01-04T23:23:45.002Z,99855.47
2024-01-04T23:26:18.120Z,99854.69
2024-01-04T23:28:48.987Z,99847.34
2024-01-04T23:31:22.287Z,99853.88
2024-01-04T23:33:55.029Z,99844.66
2024-01-04T23:36:30.264Z,99844.66
2024-01-04T23:39:01.049Z,99843.53
2024-01-04T23:41:41.721Z,99821.09
2024-01-04T23:44:17.333Z,99804.06
2024-01-04T23:46:50.548Z,99808.38
2024-01-04T23:49:21.426Z,99808.97
2024-01-04T23:51:56.955Z,99793.53
2024-01-04T23:54:28.505Z,99785.88
2024-01-04T23:57:00.367Z,99769.19
2024-01-04T23:59:30.250Z,99769.81
